AirNav   Airventure
 
 773 users online  

2MS2 Highland Community Hospital Heliport
Picayune, Mississippi, USA


FAA INFORMATION EFFECTIVE 20 JULY 2017

Location

FAA Identifier: 2MS2
Lat/Long: 30-32-57.3100N / 089-39-57.1800W
30-32.955167N / 089-39.953000W
30.5492528 / -89.6658833
(estimated)
Elevation: 50 ft. / 15 m (estimated)
From city: 2 miles N of PICAYUNE, MS
Time zone: UTC +0 (year round; does not observe DST)
Zip code: 39466

Heliport Operations

Heliport use: Private use. Permission required prior to landing
Activation date: 03/2017
Control tower: no
ARTCC: HOUSTON CENTER
FSS: GREENWOOD FLIGHT SERVICE STATION
Attendance: 
Wind indicator: yes
Segmented circle: no

Heliport Communications

WX AWOS-3 at MJD (4 nm S): 119.075 (601-798-4136)
WX ASOS at ASD (15 nm SW): 132.475 (985-643-7263)
WX AWOS-3 at HSA (15 nm SE): 118.375 (228-466-9320)
WX AWOS-3PT at BXA (19 nm NW): 118.025 (985-732-6224)

Nearby radio navigation aids

VOR radial/distance  VOR name  Freq  Var
PCUr097/3.4PICAYUNE VOR/DME112.2005E
GPTr284/31.6GULFPORT VORTAC109.0002E
HMUr087/(38.9)HAMMOND VOR109.6000E

 
NDB name  Hdg/Dist  Freq  Var  ID
HANCO300/12.422102WHS .... ...
BOGALUSA151/22.435302EGVB --. ...- -...

Heliport Services

Runway Information

Helipad H1

Dimensions: 54 x 54 ft. / 16 x 16 m
Surface: concrete
Runway edge lights: PERI
Latitude: 30-32.955167N
Longitude: 089-39.953000W
Elevation: 50.0 ft.
Traffic pattern: leftleft

Heliport Ownership and Management from official FAA records

Ownership: Privately-owned
Owner: HIGHLAND COMMUNITY HOSPITAL
130 HIGHLAND PKWY
PICAYUNE, MS 39466
Phone 601 798 4711
Manager: JOE GIBSON
6051 US HWY 40
HATTIESBURG, MS 39401
Phone 601 798 4711

Instrument Procedures

There are no published instrument procedures at 2MS2.

Some nearby airports with instrument procedures:

KMJD - Picayune Municipal Airport (4 nm S)
KASD - Slidell Airport (15 nm SW)
KHSA - Stennis International Airport (15 nm SE)
M13 - Poplarville-Pearl River County Airport (16 nm NE)
KBXA - George R Carr Memorial Air Field (19 nm NW)
 
Loc | Ops | Rwys | IFR | FBO | Links
Com | Nav | Svcs | Stats | Notes


 
Aerial photo
No photo
 
Airport distance calculator
Flying to Highland Community Hospital Heliport? Find the distance to fly.

From to 2MS2

Sunrise and sunset
Times for 29-Jul-2017
 Zulu (UTC)
Morning civil twilight10:49
Sunrise11:16
Sunset00:54
Evening civil twilight01:21

Current date and time
Zulu (UTC)  29-Jul-2017 12:46:45
 
METAR
KHSA 
16nm SE 
291155Z 00000KT 7SM SCT015 26/25 A2987
KASD 
19nm S 
291203Z AUTO VRB04KT 10SM -RA BKN018 BKN027 BKN100 28/26 A2988 RMK AO2 RAB02 P0000 T02830256
KBXA 
19nm NW 
291235Z AUTO 26003KT 10SM VCTS SCT016 BKN021 OVC095 27/25 A2992 RMK AO2 LTG DSNT NE AND E T02710247
KGPT 
31nm E 
291153Z 29004KT 10SM SCT090 27/26 A2987 RMK AO2 SLP113 T02720261 10283 20272 53010
TAF
KASD 
19nm S 
291207Z 2918/3018 VRB03KT P6SM SCT250 FM291400 28007KT P6SM VCSH BKN040 FM291500 27007KT P6SM -SHRA VCTS BKN045CB FM300100 31005KT P6SM FEW030 BKN100 FM300500 35007KT P6SM SCT150
NOTAMs
Click for the latest NOTAMs
NOTAMs are issued by the DoD/FAA and will open in a separate window not controlled by AirNav.

 

 
 

Would you like to see your business listed on this page?

 If your business provides an interesting product or service to pilots, flight crews, aircraft, or users of the Highland Community Hospital Heliport, you should consider listing it here.  To start the listing process, click on the button below
 
Add a business
 

Other Pages about Highland Community Hospital Heliport

Update a link
 
Copyright © AirNav, LLC. All rights reserved. Privacy Policy  Contact